createdAt,value
2023-02-06T00:01:45.986Z,87.00
2023-02-06T00:04:14.694Z,87.10
2023-02-06T00:06:43.444Z,87.70
2023-02-06T00:09:12.295Z,87.50
2023-02-06T00:11:40.670Z,87.20
2023-02-06T00:14:10.405Z,86.90
2023-02-06T00:16:38.672Z,86.70
2023-02-06T00:19:07.124Z,86.70
2023-02-06T00:21:35.476Z,87.10
2023-02-06T00:24:04.921Z,87.20
2023-02-06T00:26:33.205Z,87.30
2023-02-06T00:29:01.575Z,87.10
2023-02-06T00:31:31.249Z,86.90
2023-02-06T00:33:59.607Z,86.30
2023-02-06T00:36:28.070Z,86.00
2023-02-06T00:38:56.637Z,85.80
2023-02-06T00:41:24.994Z,86.00
2023-02-06T00:43:53.374Z,85.90
2023-02-06T00:46:21.978Z,85.60
2023-02-06T00:48:51.702Z,85.60
2023-02-06T00:51:20.074Z,85.80
2023-02-06T00:53:50.980Z,86.30
2023-02-06T00:56:20.352Z,87.10
2023-02-06T00:58:49.203Z,87.30
2023-02-06T01:01:18.649Z,87.30
2023-02-06T01:03:47.035Z,87.70
2023-02-06T01:06:16.838Z,88.30
2023-02-06T01:08:45.264Z,88.10
2023-02-06T01:11:15.034Z,88.00
2023-02-06T01:13:44.271Z,87.50
2023-02-06T01:16:16.498Z,86.90
2023-02-06T01:18:45.116Z,87.10
2023-02-06T01:21:16.911Z,87.10
2023-02-06T01:23:45.897Z,87.40
2023-02-06T01:26:19.130Z,87.80
2023-02-06T01:28:49.523Z,88.00
2023-02-06T01:31:22.499Z,88.60
2023-02-06T01:33:51.503Z,88.80
2023-02-06T01:36:22.409Z,88.60
2023-02-06T01:38:53.489Z,88.30
2023-02-06T01:41:23.391Z,88.10
2023-02-06T01:44:12.677Z,87.90
2023-02-06T01:46:43.339Z,87.90
2023-02-06T01:49:17.512Z,87.90
2023-02-06T01:51:48.609Z,88.10
2023-02-06T01:54:17.395Z,89.10
2023-02-06T01:56:50.194Z,89.30
2023-02-06T01:59:18.805Z,89.30
2023-02-06T02:01:47.200Z,89.10
2023-02-06T02:04:22.908Z,88.80
2023-02-06T02:07:04.628Z,88.40
2023-02-06T02:09:33.539Z,88.30
2023-02-06T02:12:02.008Z,88.30
2023-02-06T02:14:31.128Z,88.10
2023-02-06T02:17:16.144Z,87.60
2023-02-06T02:20:17.210Z,87.80
2023-02-06T02:23:03.240Z,88.40
2023-02-06T02:26:09.254Z,88.70
2023-02-06T02:29:23.578Z,88.50
2023-02-06T02:32:37.888Z,88.00
2023-02-06T02:35:25.514Z,88.40
2023-02-06T02:38:04.949Z,88.90
2023-02-06T02:40:43.568Z,90.30
2023-02-06T02:43:25.388Z,90.40
2023-02-06T02:45:58.850Z,90.20
2023-02-06T02:48:31.637Z,89.00
2023-02-06T02:51:02.230Z,88.60
2023-02-06T02:53:30.539Z,88.50
2023-02-06T02:56:00.020Z,89.00
2023-02-06T02:58:34.736Z,89.40
2023-02-06T03:01:09.107Z,89.50
2023-02-06T03:03:41.720Z,89.60
2023-02-06T03:06:38.569Z,88.80
2023-02-06T03:09:14.802Z,88.30
2023-02-06T03:11:50.715Z,88.60
2023-02-06T03:14:30.158Z,88.70
2023-02-06T03:17:05.830Z,88.40
2023-02-06T03:19:40.365Z,88.50
2023-02-06T03:22:10.753Z,88.80
2023-02-06T03:24:41.394Z,89.50
2023-02-06T03:27:15.369Z,90.20
2023-02-06T03:29:44.634Z,90.50
2023-02-06T03:32:17.921Z,90.70
2023-02-06T03:34:54.702Z,91.00
2023-02-06T03:37:26.034Z,91.10
2023-02-06T03:39:54.617Z,91.30
2023-02-06T03:42:23.896Z,91.60
2023-02-06T03:45:00.791Z,91.70
2023-02-06T03:47:30.897Z,91.90
2023-02-06T03:50:01.610Z,91.80
2023-02-06T03:52:38.461Z,91.90
2023-02-06T03:55:14.755Z,92.00
2023-02-06T03:57:46.178Z,92.00
2023-02-06T04:00:16.194Z,92.10
2023-02-06T04:02:47.554Z,92.20
2023-02-06T04:05:17.086Z,92.30
2023-02-06T04:07:47.114Z,92.30
2023-02-06T04:10:15.745Z,92.20
2023-02-06T04:12:44.097Z,92.30
2023-02-06T04:15:12.544Z,92.30
2023-02-06T04:17:57.548Z,92.30
2023-02-06T04:20:27.651Z,92.40
2023-02-06T04:22:57.591Z,92.40
2023-02-06T04:25:26.130Z,92.40
2023-02-06T04:27:54.635Z,92.40
2023-02-06T04:30:22.968Z,92.40
2023-02-06T04:32:51.363Z,92.20
2023-02-06T04:35:19.914Z,92.30
2023-02-06T04:37:48.218Z,92.30
2023-02-06T04:40:18.472Z,92.40
2023-02-06T04:42:46.769Z,92.50
2023-02-06T04:45:15.697Z,92.50
2023-02-06T04:47:44.000Z,92.50
2023-02-06T04:50:12.483Z,92.50
2023-02-06T04:52:40.764Z,92.30
2023-02-06T04:55:10.128Z,92.20
2023-02-06T04:57:40.121Z,92.20
2023-02-06T05:00:10.790Z,92.40
2023-02-06T05:02:39.799Z,92.50
2023-02-06T05:05:10.498Z,92.50
2023-02-06T05:07:39.090Z,92.50
2023-02-06T05:10:09.098Z,92.40
2023-02-06T05:12:39.197Z,92.40
2023-02-06T05:15:09.228Z,92.20
2023-02-06T05:17:37.839Z,92.10
2023-02-06T05:20:07.916Z,92.20
2023-02-06T05:22:36.580Z,92.10
2023-02-06T05:25:05.058Z,92.20
2023-02-06T05:27:33.365Z,92.20
2023-02-06T05:30:03.132Z,92.10
2023-02-06T05:32:31.553Z,92.20
2023-02-06T05:34:59.956Z,92.20
2023-02-06T05:37:28.340Z,92.40
2023-02-06T05:39:58.047Z,92.20
2023-02-06T05:42:27.893Z,92.10
2023-02-06T05:44:56.461Z,92.00
2023-02-06T05:47:26.682Z,92.20
2023-02-06T05:49:55.037Z,92.30
2023-02-06T05:52:23.412Z,92.30
2023-02-06T05:54:51.724Z,92.40
2023-02-06T05:57:20.318Z,92.50
2023-02-06T05:59:48.874Z,92.70
2023-02-06T06:02:17.490Z,92.60
2023-02-06T06:04:47.412Z,92.60
2023-02-06T06:07:15.749Z,92.60
2023-02-06T06:09:44.298Z,92.40
2023-02-06T06:12:12.617Z,92.30
2023-02-06T06:14:40.910Z,92.30
2023-02-06T06:17:09.361Z,92.40
2023-02-06T06:19:37.676Z,92.60
2023-02-06T06:22:07.402Z,92.60
2023-02-06T06:24:35.717Z,92.50
2023-02-06T06:27:04.235Z,92.50
2023-02-06T06:29:32.538Z,92.60
2023-02-06T06:32:00.828Z,92.60
2023-02-06T06:34:29.288Z,92.80
2023-02-06T06:36:57.623Z,92.90
2023-02-06T06:39:27.447Z,92.80
2023-02-06T06:41:55.748Z,92.70
2023-02-06T06:44:24.517Z,92.60
2023-02-06T06:46:53.347Z,92.60
2023-02-06T06:49:21.665Z,92.80
2023-02-06T06:51:49.938Z,92.80
2023-02-06T06:54:19.576Z,92.80
2023-02-06T06:56:49.273Z,92.80
2023-02-06T06:59:17.704Z,92.70
2023-02-06T07:01:46.229Z,92.90
2023-02-06T07:04:14.633Z,92.90
2023-02-06T07:06:42.888Z,92.90
2023-02-06T07:09:11.209Z,92.80
2023-02-06T07:11:39.733Z,92.80
2023-02-06T07:14:10.220Z,92.90
2023-02-06T07:16:38.760Z,92.80
2023-02-06T07:19:07.553Z,92.70
2023-02-06T07:21:35.986Z,92.70
2023-02-06T07:24:04.597Z,92.80
2023-02-06T07:26:32.998Z,92.80
2023-02-06T07:29:01.396Z,92.90
2023-02-06T07:31:31.170Z,92.90
2023-02-06T07:33:59.483Z,92.90
2023-02-06T07:36:27.836Z,92.90
2023-02-06T07:38:56.128Z,92.80
2023-02-06T07:41:24.611Z,92.90
2023-02-06T07:43:54.264Z,92.90
2023-02-06T07:46:22.640Z,93.00
2023-02-06T07:48:52.424Z,93.10
2023-02-06T07:51:20.934Z,93.10
2023-02-06T07:53:50.160Z,93.10
2023-02-06T07:56:20.674Z,93.20
2023-02-06T07:58:52.677Z,93.10
2023-02-06T08:01:21.357Z,93.00
2023-02-06T08:03:52.372Z,93.00
2023-02-06T08:06:24.252Z,93.20
2023-02-06T08:08:55.534Z,93.20
2023-02-06T08:11:26.137Z,93.30
2023-02-06T08:13:54.513Z,93.20
2023-02-06T08:16:24.520Z,93.20
2023-02-06T08:18:54.485Z,93.20
2023-02-06T08:21:25.792Z,93.10
2023-02-06T08:23:57.996Z,93.20
2023-02-06T08:26:28.461Z,93.30
2023-02-06T08:28:59.443Z,93.30
2023-02-06T08:31:31.099Z,93.30
2023-02-06T08:34:00.916Z,93.30
2023-02-06T08:36:31.889Z,93.40
2023-02-06T08:39:01.626Z,93.30
2023-02-06T08:41:33.248Z,93.30
2023-02-06T08:44:04.573Z,93.30
2023-02-06T08:46:34.216Z,93.40
2023-02-06T08:49:06.645Z,93.40
2023-02-06T08:51:36.816Z,93.30
2023-02-06T08:54:09.278Z,93.30
2023-02-06T08:56:39.340Z,93.20
2023-02-06T08:59:09.113Z,93.30
2023-02-06T09:01:38.697Z,93.20
2023-02-06T09:04:11.114Z,93.30
2023-02-06T09:06:42.587Z,93.30
2023-02-06T09:09:13.333Z,93.20
2023-02-06T09:11:41.931Z,93.30
2023-02-06T09:14:14.747Z,93.20
2023-02-06T09:16:43.130Z,93.20
2023-02-06T09:19:13.124Z,93.30
2023-02-06T09:21:41.844Z,93.20
2023-02-06T09:24:10.934Z,93.20
2023-02-06T09:26:58.153Z,93.20
2023-02-06T09:29:28.980Z,93.20
2023-02-06T09:31:58.353Z,93.20
2023-02-06T09:34:28.377Z,93.30
2023-02-06T09:36:57.797Z,93.20
2023-02-06T09:39:27.570Z,93.30
2023-02-06T09:42:00.475Z,93.20
2023-02-06T09:44:34.445Z,93.30
2023-02-06T09:47:08.514Z,93.30
2023-02-06T09:49:43.683Z,93.20
2023-02-06T09:52:40.176Z,93.30
2023-02-06T09:55:20.372Z,93.10
2023-02-06T09:57:57.487Z,93.20
2023-02-06T10:00:41.612Z,93.10
2023-02-06T10:03:37.449Z,93.10
2023-02-06T10:06:19.429Z,93.10
2023-02-06T10:08:59.031Z,93.20
2023-02-06T10:11:39.685Z,93.20
2023-02-06T10:14:19.024Z,93.10
2023-02-06T10:16:50.485Z,93.10
2023-02-06T10:19:39.169Z,93.10
2023-02-06T10:22:15.218Z,93.00
2023-02-06T10:25:08.849Z,92.90
2023-02-06T10:27:39.091Z,92.90
2023-02-06T10:30:08.412Z,93.00
2023-02-06T10:32:47.724Z,92.90
2023-02-06T10:35:30.854Z,92.90
2023-02-06T10:38:50.277Z,92.80
2023-02-06T10:41:32.688Z,92.70
2023-02-06T10:44:12.415Z,92.60
2023-02-06T10:46:48.311Z,92.50
2023-02-06T10:49:30.568Z,92.30
2023-02-06T10:52:02.165Z,92.20
2023-02-06T10:54:38.317Z,92.20
2023-02-06T10:57:17.608Z,92.10
2023-02-06T10:59:53.576Z,92.20
2023-02-06T11:02:26.960Z,92.30
2023-02-06T11:05:11.760Z,92.30
2023-02-06T11:07:43.653Z,92.30
2023-02-06T11:10:18.634Z,92.20
2023-02-06T11:12:52.700Z,92.10
2023-02-06T11:15:32.577Z,92.10
2023-02-06T11:18:03.763Z,92.10
2023-02-06T11:20:35.770Z,92.00
2023-02-06T11:23:20.739Z,91.90
2023-02-06T11:26:05.377Z,91.90
2023-02-06T11:28:35.414Z,91.90
2023-02-06T11:31:07.324Z,92.00
2023-02-06T11:33:42.791Z,92.00
2023-02-06T11:36:27.853Z,91.80
2023-02-06T11:39:00.375Z,91.90
2023-02-06T11:41:31.306Z,92.00
2023-02-06T11:44:06.470Z,91.90
2023-02-06T11:46:36.352Z,91.80
2023-02-06T11:49:25.771Z,91.70
2023-02-06T11:51:56.493Z,91.80
2023-02-06T11:54:29.251Z,92.00
2023-02-06T11:57:04.323Z,92.00
2023-02-06T11:59:35.064Z,91.90
2023-02-06T12:02:21.956Z,91.70
2023-02-06T12:04:51.684Z,91.70
2023-02-06T12:07:30.357Z,91.40
2023-02-06T12:09:58.747Z,91.30
2023-02-06T12:12:33.453Z,91.40
2023-02-06T12:15:33.099Z,91.10
2023-02-06T12:18:02.423Z,91.00
2023-02-06T12:20:34.957Z,91.20
2023-02-06T12:23:08.853Z,91.10
2023-02-06T12:25:43.235Z,90.80
2023-02-06T12:28:18.949Z,90.60
2023-02-06T12:30:55.691Z,90.50
2023-02-06T12:33:34.052Z,90.40
2023-02-06T12:36:07.722Z,90.50
2023-02-06T12:38:44.531Z,90.40
2023-02-06T12:41:39.276Z,90.30
2023-02-06T12:44:24.246Z,90.30
2023-02-06T12:46:59.906Z,90.30
2023-02-06T12:49:35.798Z,90.20
2023-02-06T12:52:10.871Z,89.80
2023-02-06T12:54:46.388Z,89.60
2023-02-06T12:57:20.327Z,89.30
2023-02-06T13:00:23.472Z,89.50
2023-02-06T13:03:22.446Z,89.30
2023-02-06T13:05:54.889Z,89.60
2023-02-06T13:08:29.029Z,89.70
2023-02-06T13:11:04.623Z,89.20
2023-02-06T13:13:37.625Z,89.20
2023-02-06T13:16:09.063Z,89.20
2023-02-06T13:19:05.329Z,88.80
2023-02-06T13:21:36.802Z,88.60
2023-02-06T13:24:18.268Z,88.60
2023-02-06T13:27:13.172Z,88.70
2023-02-06T13:29:45.336Z,88.50
2023-02-06T13:32:46.341Z,88.50
2023-02-06T13:35:25.330Z,88.20
2023-02-06T13:38:27.942Z,88.30
2023-02-06T13:41:29.222Z,88.50
2023-02-06T13:44:02.014Z,88.70
2023-02-06T13:47:10.804Z,88.60
2023-02-06T13:50:29.803Z,88.30
2023-02-06T13:53:43.154Z,88.00
2023-02-06T13:56:33.122Z,87.90
2023-02-06T13:59:06.515Z,87.90
2023-02-06T14:01:35.164Z,87.80
2023-02-06T14:04:08.258Z,87.80
2023-02-06T14:06:55.173Z,87.90
2023-02-06T14:09:40.068Z,87.90
2023-02-06T14:12:35.595Z,87.60
2023-02-06T14:15:26.924Z,87.90
2023-02-06T14:18:07.257Z,87.80
2023-02-06T14:20:48.750Z,87.80
2023-02-06T14:23:32.675Z,87.90
2023-02-06T14:26:17.916Z,87.90
2023-02-06T14:28:56.625Z,87.70
2023-02-06T14:31:46.749Z,87.50
2023-02-06T14:34:35.957Z,87.60
2023-02-06T14:37:34.659Z,87.50
2023-02-06T14:40:13.033Z,87.50
2023-02-06T14:42:44.454Z,87.60
2023-02-06T14:45:26.578Z,87.60
2023-02-06T14:47:59.050Z,87.60
2023-02-06T14:50:30.594Z,87.40
2023-02-06T14:53:04.173Z,87.20
2023-02-06T14:55:41.007Z,87.10
2023-02-06T14:58:21.458Z,87.10
2023-02-06T15:00:50.046Z,87.20
2023-02-06T15:03:23.388Z,87.20
2023-02-06T15:06:02.093Z,87.10
2023-02-06T15:08:32.573Z,87.00
2023-02-06T15:11:08.698Z,87.10
2023-02-06T15:13:37.876Z,87.00
2023-02-06T15:16:10.006Z,87.00
2023-02-06T15:18:38.857Z,87.10
2023-02-06T15:21:09.834Z,87.10
2023-02-06T15:23:55.516Z,86.90
2023-02-06T15:26:35.597Z,87.00
2023-02-06T15:29:07.074Z,87.00
2023-02-06T15:31:36.056Z,87.00
2023-02-06T15:34:04.544Z,87.00
2023-02-06T15:36:37.206Z,87.00
2023-02-06T15:39:09.795Z,86.90
2023-02-06T15:41:42.513Z,87.00
2023-02-06T15:44:27.795Z,87.00
2023-02-06T15:46:58.022Z,86.90
2023-02-06T15:49:41.054Z,86.90
2023-02-06T15:52:12.424Z,86.90
2023-02-06T15:54:45.031Z,87.00
2023-02-06T15:57:29.646Z,87.10
2023-02-06T15:59:58.468Z,87.10
2023-02-06T16:02:34.349Z,87.10
2023-02-06T16:05:04.235Z,87.10
2023-02-06T16:07:35.947Z,87.00
2023-02-06T16:10:21.684Z,87.10
2023-02-06T16:12:52.746Z,87.30
2023-02-06T16:15:27.851Z,87.40
2023-02-06T16:17:58.374Z,87.40
2023-02-06T16:20:33.626Z,87.50
2023-02-06T16:23:27.250Z,87.50
2023-02-06T16:26:07.381Z,87.60
2023-02-06T16:28:48.484Z,87.50
2023-02-06T16:31:17.122Z,87.70
2023-02-06T16:33:49.267Z,87.60
2023-02-06T16:36:19.975Z,87.80
2023-02-06T16:39:02.723Z,87.70
2023-02-06T16:41:34.692Z,87.80
2023-02-06T16:44:08.389Z,88.00
2023-02-06T16:46:36.689Z,87.90
2023-02-06T16:49:12.866Z,88.00
2023-02-06T16:51:43.451Z,86.90
2023-02-06T16:54:20.244Z,86.90
2023-02-06T16:56:49.206Z,87.20
2023-02-06T16:59:18.977Z,87.60
2023-02-06T17:01:47.475Z,87.20
2023-02-06T17:04:16.156Z,87.10
2023-02-06T17:06:44.594Z,87.60
2023-02-06T17:09:15.241Z,87.50
2023-02-06T17:11:43.560Z,87.50
2023-02-06T17:14:12.524Z,88.00
2023-02-06T17:16:42.264Z,87.90
2023-02-06T17:19:12.437Z,88.10
2023-02-06T17:21:40.754Z,87.20
2023-02-06T17:24:15.089Z,87.00
2023-02-06T17:26:43.375Z,87.00
2023-02-06T17:29:15.455Z,87.00
2023-02-06T17:31:45.159Z,87.30
2023-02-06T17:34:13.448Z,87.50
2023-02-06T17:36:43.190Z,87.90
2023-02-06T17:39:13.940Z,87.80
2023-02-06T17:41:42.256Z,87.50
2023-02-06T17:44:11.660Z,87.40
2023-02-06T17:46:40.222Z,87.40
2023-02-06T17:49:10.009Z,87.40
2023-02-06T17:51:40.267Z,87.90
2023-02-06T17:54:09.165Z,87.80
2023-02-06T17:56:37.937Z,87.40
2023-02-06T17:59:06.287Z,86.80
2023-02-06T18:01:35.441Z,87.50
2023-02-06T18:04:04.200Z,88.10
2023-02-06T18:06:36.422Z,88.20
2023-02-06T18:09:05.594Z,87.60
2023-02-06T18:11:35.767Z,87.60
2023-02-06T18:14:04.360Z,87.60
2023-02-06T18:16:33.591Z,87.20
2023-02-06T18:19:02.211Z,87.10
2023-02-06T18:21:31.452Z,88.60
2023-02-06T18:24:01.175Z,88.70
2023-02-06T18:26:29.516Z,88.60
2023-02-06T18:28:57.815Z,88.40
2023-02-06T18:31:30.180Z,88.30
2023-02-06T18:33:59.822Z,87.80
2023-02-06T18:36:28.399Z,87.90
2023-02-06T18:38:57.634Z,88.00
2023-02-06T18:41:44.814Z,87.90
2023-02-06T18:44:13.897Z,87.90
2023-02-06T18:46:48.326Z,88.00
2023-02-06T18:49:16.672Z,88.40
2023-02-06T18:51:45.055Z,88.90
2023-02-06T18:54:13.579Z,88.90
2023-02-06T18:56:44.051Z,89.20
2023-02-06T18:59:12.394Z,89.40
2023-02-06T19:01:40.979Z,89.40
2023-02-06T19:04:09.354Z,89.40
2023-02-06T19:06:42.244Z,89.60
2023-02-06T19:09:12.279Z,89.60
2023-02-06T19:11:43.652Z,90.10
2023-02-06T19:14:17.398Z,90.50
2023-02-06T19:16:48.047Z,90.70
2023-02-06T19:19:16.787Z,90.40
2023-02-06T19:21:45.904Z,90.10
2023-02-06T19:24:16.139Z,90.00
2023-02-06T19:26:46.304Z,90.50
2023-02-06T19:29:19.313Z,90.40
2023-02-06T19:31:52.620Z,90.30
2023-02-06T19:34:21.025Z,90.50
2023-02-06T19:36:49.369Z,90.50
2023-02-06T19:39:17.751Z,90.50
2023-02-06T19:41:47.474Z,90.60
2023-02-06T19:44:16.138Z,90.90
2023-02-06T19:46:44.515Z,91.00
2023-02-06T19:49:13.073Z,91.00
2023-02-06T19:51:45.486Z,91.20
2023-02-06T19:54:14.268Z,91.20
2023-02-06T19:56:46.683Z,91.30
2023-02-06T19:59:19.082Z,91.30
2023-02-06T20:01:49.555Z,91.50
2023-02-06T20:04:18.826Z,91.60
2023-02-06T20:06:50.039Z,91.70
2023-02-06T20:09:20.517Z,91.70
2023-02-06T20:11:50.967Z,91.70
2023-02-06T20:14:20.528Z,91.70
2023-02-06T20:16:50.023Z,91.70
2023-02-06T20:19:21.765Z,91.70
2023-02-06T20:21:52.902Z,91.60
2023-02-06T20:24:22.707Z,91.50
2023-02-06T20:26:56.220Z,91.40
2023-02-06T20:29:27.776Z,91.40
2023-02-06T20:31:57.336Z,91.30
2023-02-06T20:34:27.731Z,91.20
2023-02-06T20:36:57.059Z,91.20
2023-02-06T20:39:26.572Z,91.20
2023-02-06T20:41:56.371Z,91.30
2023-02-06T20:44:24.765Z,91.10
2023-02-06T20:46:53.136Z,91.10
2023-02-06T20:49:23.864Z,91.00
2023-02-06T20:51:54.610Z,90.90
2023-02-06T20:54:23.787Z,90.90
2023-02-06T20:56:52.870Z,90.80
2023-02-06T20:59:23.087Z,90.80
2023-02-06T21:01:51.661Z,90.70
2023-02-06T21:04:21.224Z,90.80
2023-02-06T21:06:51.444Z,90.70
2023-02-06T21:09:20.382Z,90.70
2023-02-06T21:11:51.003Z,90.20
2023-02-06T21:14:21.946Z,89.80
2023-02-06T21:16:50.788Z,90.00
2023-02-06T21:19:22.333Z,89.30
2023-02-06T21:21:50.930Z,89.40
2023-02-06T21:24:19.964Z,89.40
2023-02-06T21:26:48.574Z,89.60
2023-02-06T21:29:17.625Z,89.90
2023-02-06T21:31:47.575Z,90.00
2023-02-06T21:34:19.256Z,90.00
2023-02-06T21:36:48.679Z,89.90
2023-02-06T21:39:22.756Z,89.90
2023-02-06T21:41:53.800Z,89.80
2023-02-06T21:44:23.822Z,89.70
2023-02-06T21:46:55.902Z,89.80
2023-02-06T21:49:25.679Z,89.60
2023-02-06T21:51:56.116Z,89.90
2023-02-06T21:54:24.852Z,90.10
2023-02-06T21:56:53.320Z,90.30
2023-02-06T21:59:21.725Z,90.30
2023-02-06T22:01:50.266Z,90.40
2023-02-06T22:04:19.975Z,90.50
2023-02-06T22:06:49.151Z,90.60
2023-02-06T22:09:18.982Z,90.40
2023-02-06T22:11:47.764Z,89.50
2023-02-06T22:14:18.270Z,89.00
2023-02-06T22:16:47.604Z,89.20
2023-02-06T22:19:17.694Z,89.30
2023-02-06T22:21:47.403Z,89.50
2023-02-06T22:24:15.973Z,89.30
2023-02-06T22:26:44.877Z,89.00
2023-02-06T22:29:16.148Z,88.90
2023-02-06T22:31:45.714Z,89.10
2023-02-06T22:34:17.692Z,89.30
2023-02-06T22:36:47.922Z,89.10
2023-02-06T22:39:16.909Z,89.00
2023-02-06T22:41:47.121Z,89.50
2023-02-06T22:44:17.328Z,89.90
2023-02-06T22:46:48.169Z,89.80
2023-02-06T22:49:16.577Z,89.90
2023-02-06T22:51:46.495Z,90.00
2023-02-06T22:54:15.443Z,90.20
2023-02-06T22:56:45.087Z,90.20
2023-02-06T22:59:17.880Z,90.50
2023-02-06T23:01:49.037Z,90.80
2023-02-06T23:04:20.050Z,91.00
2023-02-06T23:06:50.194Z,91.10
2023-02-06T23:09:22.084Z,90.80
2023-02-06T23:11:51.703Z,90.80
2023-02-06T23:14:21.180Z,90.90
2023-02-06T23:16:49.762Z,90.70
2023-02-06T23:19:20.203Z,90.80
2023-02-06T23:21:51.856Z,90.90
2023-02-06T23:24:20.702Z,91.10
2023-02-06T23:26:51.903Z,90.90
2023-02-06T23:29:21.958Z,90.20
2023-02-06T23:31:51.542Z,89.70
2023-02-06T23:34:23.666Z,89.80
2023-02-06T23:36:53.876Z,89.90
2023-02-06T23:39:22.559Z,90.30
2023-02-06T23:41:51.067Z,90.60
2023-02-06T23:44:20.019Z,91.10
2023-02-06T23:46:48.902Z,91.60
2023-02-06T23:49:17.274Z,91.60
2023-02-06T23:51:45.641Z,91.60
2023-02-06T23:54:15.453Z,91.40
2023-02-06T23:56:43.755Z,90.30
2023-02-06T23:59:12.841Z,89.80
